createdAt,value
2022-12-14T00:18:29.316Z,18.0
2022-12-14T00:48:29.299Z,17.9
2022-12-14T01:18:29.264Z,17.8
2022-12-14T01:48:29.296Z,17.8
2022-12-14T02:18:29.070Z,17.8
2022-12-14T02:48:29.265Z,17.6
2022-12-14T03:18:29.275Z,17.5
2022-12-14T03:48:29.359Z,17.5
2022-12-14T04:18:29.304Z,17.5
2022-12-14T04:48:29.313Z,17.6
2022-12-14T05:18:29.293Z,17.8
2022-12-14T05:48:29.306Z,18.0
2022-12-14T06:18:29.383Z,18.1
2022-12-14T06:48:29.325Z,18.3
2022-12-14T07:18:29.331Z,18.3
2022-12-14T07:48:29.305Z,18.5
2022-12-14T08:18:29.339Z,18.5
2022-12-14T08:48:29.294Z,18.6
2022-12-14T09:18:29.271Z,18.6
2022-12-14T09:48:29.362Z,18.7
2022-12-14T10:18:29.418Z,18.8
2022-12-14T11:18:29.312Z,18.9
2022-12-14T11:48:29.308Z,18.9
2022-12-14T12:18:29.293Z,19.0
2022-12-14T12:48:29.336Z,19.0
2022-12-14T13:18:29.315Z,19.0
2022-12-14T13:48:29.280Z,19.0
2022-12-14T14:18:29.441Z,19.1
2022-12-14T14:48:29.305Z,19.1
2022-12-14T15:18:29.335Z,19.1
2022-12-14T15:48:29.278Z,19.1
2022-12-14T16:18:29.454Z,19.2
2022-12-14T16:48:29.118Z,19.2
2022-12-14T17:18:29.320Z,19.3
2022-12-14T17:48:29.317Z,19.3
2022-12-14T18:18:29.488Z,19.4
2022-12-14T18:48:29.315Z,19.5
2022-12-14T19:18:29.011Z,19.5
2022-12-14T19:48:29.300Z,19.4
2022-12-14T20:18:29.278Z,19.3
2022-12-14T20:48:29.301Z,19.1
2022-12-14T21:18:29.312Z,19.0
2022-12-14T21:48:29.324Z,18.8
2022-12-14T22:18:29.330Z,18.7
2022-12-14T22:48:29.018Z,18.7
2022-12-14T23:18:29.339Z,18.5
2022-12-14T23:48:29.304Z,18.3
